createdAt,value
2023-02-14T00:00:51.814Z,50.877148
2023-02-14T00:01:51.796Z,50.877056
2023-02-14T00:02:51.854Z,50.877029
2023-02-14T00:03:51.775Z,50.877151
2023-02-14T00:04:51.812Z,50.877163
2023-02-14T00:05:51.787Z,50.877159
2023-02-14T00:06:51.746Z,50.877144
2023-02-14T00:07:51.760Z,50.877171
2023-02-14T00:08:51.736Z,50.877163
2023-02-14T00:09:51.724Z,50.877197
2023-02-14T00:10:51.710Z,50.877121
2023-02-14T00:11:51.719Z,50.877148
2023-02-14T00:12:51.700Z,50.877197
2023-02-14T00:13:51.697Z,50.877129
2023-02-14T00:14:52.681Z,50.877190
2023-02-14T00:15:51.697Z,50.877148
2023-02-14T00:16:51.673Z,50.877224
2023-02-14T00:17:51.658Z,50.877209
2023-02-14T00:18:51.622Z,50.877232
2023-02-14T00:19:51.627Z,50.877213
2023-02-14T00:20:51.658Z,50.877178
2023-02-14T00:21:51.624Z,50.877190
2023-02-14T00:22:51.588Z,50.877220
2023-02-14T00:23:51.577Z,50.877178
2023-02-14T00:24:51.587Z,50.877167
2023-02-14T00:25:51.570Z,50.877235
2023-02-14T00:26:51.556Z,50.877247
2023-02-14T00:27:51.563Z,50.877163
2023-02-14T00:28:51.539Z,50.877178
2023-02-14T00:29:51.565Z,50.877224
2023-02-14T00:30:51.549Z,50.877228
2023-02-14T00:31:51.603Z,50.877094
2023-02-14T00:32:51.580Z,50.877178
2023-02-14T00:33:51.504Z,50.877228
2023-02-14T00:34:51.494Z,50.877209
2023-02-14T00:35:51.500Z,50.877151
2023-02-14T00:36:51.488Z,50.877098
2023-02-14T00:37:51.479Z,50.877220
2023-02-14T00:38:51.471Z,50.877178
2023-02-14T00:39:51.435Z,50.877121
2023-02-14T00:40:51.426Z,50.877037
2023-02-14T00:41:51.451Z,50.877266
2023-02-14T00:42:51.424Z,50.877239
2023-02-14T00:43:51.475Z,50.877274
2023-02-14T00:44:51.396Z,50.877270
2023-02-14T00:45:51.446Z,50.877163
2023-02-14T00:46:51.375Z,50.877163
2023-02-14T00:47:51.385Z,50.877098
2023-02-14T00:48:51.352Z,50.877132
2023-02-14T00:49:51.329Z,50.877190
2023-02-14T00:50:51.336Z,50.877220
2023-02-14T00:51:51.323Z,50.877182
2023-02-14T00:52:51.333Z,50.877113
2023-02-14T00:53:51.326Z,50.877190
2023-02-14T00:54:51.303Z,50.877163
2023-02-14T00:55:51.275Z,50.877129
2023-02-14T00:56:51.270Z,50.877106
2023-02-14T00:57:51.258Z,50.877186
2023-02-14T00:58:51.259Z,50.877151
2023-02-14T00:59:51.254Z,50.877117
2023-02-14T01:00:51.254Z,50.877106
2023-02-14T01:01:51.232Z,50.877132
2023-02-14T01:02:51.359Z,50.877136
2023-02-14T01:03:51.218Z,50.877136
2023-02-14T01:04:51.200Z,50.877144
2023-02-14T01:05:51.168Z,50.877121
2023-02-14T01:06:51.187Z,50.877178
2023-02-14T01:07:51.201Z,50.877174
2023-02-14T01:08:51.143Z,50.877193
2023-02-14T01:09:51.155Z,50.877140
2023-02-14T01:10:51.164Z,50.877174
2023-02-14T01:11:52.138Z,50.877151
2023-02-14T01:12:51.105Z,50.877155
2023-02-14T01:13:51.089Z,50.877125
2023-02-14T01:14:51.092Z,50.877197
2023-02-14T01:15:51.087Z,50.877205
2023-02-14T01:16:51.135Z,50.877186
2023-02-14T01:17:51.095Z,50.877209
2023-02-14T01:18:51.078Z,50.877213
2023-02-14T01:19:51.044Z,50.877186
2023-02-14T01:20:51.039Z,50.877197
2023-02-14T01:21:51.035Z,50.877220
2023-02-14T01:22:51.033Z,50.877197
2023-02-14T01:23:51.012Z,50.877224
2023-02-14T01:24:51.010Z,50.877224
2023-02-14T01:25:51.006Z,50.877224
2023-02-14T01:26:50.994Z,50.877251
2023-02-14T01:27:50.977Z,50.877258
2023-02-14T01:28:50.961Z,50.877274
2023-02-14T01:29:51.015Z,50.877224
2023-02-14T01:30:50.995Z,50.877186
2023-02-14T01:31:50.998Z,50.877193
2023-02-14T01:32:50.933Z,50.877224
2023-02-14T01:33:50.911Z,50.877235
2023-02-14T01:34:50.895Z,50.877232
2023-02-14T01:35:50.896Z,50.877224
2023-02-14T01:36:50.915Z,50.877220
2023-02-14T01:37:50.890Z,50.877228
2023-02-14T01:38:50.877Z,50.877205
2023-02-14T01:39:50.878Z,50.877228
2023-02-14T01:40:50.862Z,50.877193
2023-02-14T01:41:50.925Z,50.877228
2023-02-14T01:42:50.843Z,50.877224
2023-02-14T01:43:50.850Z,50.877178
2023-02-14T01:44:50.811Z,50.877140
2023-02-14T01:45:50.894Z,50.877201
2023-02-14T01:46:50.803Z,50.877171
2023-02-14T01:47:50.809Z,50.877106
2023-02-14T01:48:50.806Z,50.877220
2023-02-14T01:49:50.755Z,50.877235
2023-02-14T01:50:50.757Z,50.877216
2023-02-14T01:51:50.746Z,50.877239
2023-02-14T01:52:50.765Z,50.877213
2023-02-14T01:53:51.009Z,50.877232
2023-02-14T01:54:50.722Z,50.877258
2023-02-14T01:55:50.715Z,50.877224
2023-02-14T01:56:50.702Z,50.877171
2023-02-14T01:57:50.697Z,50.877213
2023-02-14T01:58:50.704Z,50.877281
2023-02-14T01:59:50.714Z,50.877197
2023-02-14T02:00:50.718Z,50.877213
2023-02-14T02:01:50.660Z,50.877232
2023-02-14T02:02:50.681Z,50.877258
2023-02-14T02:03:50.642Z,50.877247
2023-02-14T02:04:51.649Z,50.877205
2023-02-14T02:05:50.649Z,50.877197
2023-02-14T02:06:50.615Z,50.877232
2023-02-14T02:07:50.610Z,50.877251
2023-02-14T02:08:50.589Z,50.877224
2023-02-14T02:09:50.599Z,50.877239
2023-02-14T02:10:50.580Z,50.877232
2023-02-14T02:11:50.587Z,50.877205
2023-02-14T02:12:51.266Z,50.877201
2023-02-14T02:13:50.549Z,50.877205
2023-02-14T02:14:50.567Z,50.877190
2023-02-14T02:15:50.531Z,50.877197
2023-02-14T02:16:50.581Z,50.877186
2023-02-14T02:17:50.517Z,50.877186
2023-02-14T02:18:50.496Z,50.877193
2023-02-14T02:19:50.521Z,50.877201
2023-02-14T02:20:50.509Z,50.877163
2023-02-14T02:21:50.475Z,50.877193
2023-02-14T02:22:50.451Z,50.877182
2023-02-14T02:23:50.449Z,50.877190
2023-02-14T02:24:50.453Z,50.877197
2023-02-14T02:25:50.460Z,50.877186
2023-02-14T02:26:50.418Z,50.877178
2023-02-14T02:27:50.401Z,50.877178
2023-02-14T02:28:50.422Z,50.877190
2023-02-14T02:29:50.445Z,50.877205
2023-02-14T02:30:50.475Z,50.877193
2023-02-14T02:31:50.553Z,50.877167
2023-02-14T02:32:50.363Z,50.877151
2023-02-14T02:33:50.359Z,50.877167
2023-02-14T02:34:50.379Z,50.877174
2023-02-14T02:35:50.340Z,50.877171
2023-02-14T02:36:50.342Z,50.877171
2023-02-14T02:37:50.366Z,50.877171
2023-02-14T02:38:50.319Z,50.877190
2023-02-14T02:39:50.297Z,50.877186
2023-02-14T02:40:50.300Z,50.877190
2023-02-14T02:41:50.275Z,50.877171
2023-02-14T02:42:50.314Z,50.877167
2023-02-14T02:43:50.260Z,50.877151
2023-02-14T02:44:50.262Z,50.877171
2023-02-14T02:45:50.264Z,50.877155
2023-02-14T02:46:50.267Z,50.877163
2023-02-14T02:47:50.214Z,50.877174
2023-02-14T02:48:51.229Z,50.877186
2023-02-14T02:49:50.208Z,50.877182
2023-02-14T02:50:50.204Z,50.877171
2023-02-14T02:51:50.178Z,50.877159
2023-02-14T02:52:50.188Z,50.877159
2023-02-14T02:53:50.155Z,50.877155
2023-02-14T02:54:50.198Z,50.877159
2023-02-14T02:55:50.141Z,50.877159
2023-02-14T02:56:50.158Z,50.877159
2023-02-14T02:57:50.132Z,50.877148
2023-02-14T02:58:50.148Z,50.877148
2023-02-14T02:59:50.099Z,50.877178
2023-02-14T03:00:50.119Z,50.877159
2023-02-14T03:01:50.122Z,50.877148
2023-02-14T03:02:50.083Z,50.877144
2023-02-14T03:03:50.086Z,50.877151
2023-02-14T03:04:50.111Z,50.877155
2023-02-14T03:05:50.054Z,50.877167
2023-02-14T03:06:50.054Z,50.877163
2023-02-14T03:07:50.059Z,50.877155
2023-02-14T03:08:50.024Z,50.877178
2023-02-14T03:09:50.026Z,50.877167
2023-02-14T03:10:50.053Z,50.877155
2023-02-14T03:11:50.007Z,50.877171
2023-02-14T03:12:49.991Z,50.877144
2023-02-14T03:13:50.018Z,50.877190
2023-02-14T03:14:49.974Z,50.877167
2023-02-14T03:15:50.053Z,50.877190
2023-02-14T03:16:49.987Z,50.877136
2023-02-14T03:17:49.951Z,50.877148
2023-02-14T03:18:49.943Z,50.877167
2023-02-14T03:19:49.937Z,50.877174
2023-02-14T03:20:49.904Z,50.877140
2023-02-14T03:21:49.905Z,50.877148
2023-02-14T03:22:49.911Z,50.877148
2023-02-14T03:23:49.878Z,50.877171
2023-02-14T03:24:49.860Z,50.877182
2023-02-14T03:25:49.857Z,50.877186
2023-02-14T03:26:49.839Z,50.877174
2023-02-14T03:27:49.869Z,50.877159
2023-02-14T03:28:49.845Z,50.877174
2023-02-14T03:29:49.856Z,50.877171
2023-02-14T03:30:49.915Z,50.877197
2023-02-14T03:31:49.955Z,50.877182
2023-02-14T03:32:49.826Z,50.877193
2023-02-14T03:33:49.785Z,50.877182
2023-02-14T03:34:49.796Z,50.877193
2023-02-14T03:35:49.779Z,50.877190
2023-02-14T03:37:21.652Z,50.877178
2023-02-14T03:37:49.742Z,50.877163
2023-02-14T03:38:49.736Z,50.877182
2023-02-14T03:39:49.739Z,50.877159
2023-02-14T03:40:49.718Z,50.877167
2023-02-14T03:41:49.706Z,50.877182
2023-02-14T03:42:50.737Z,50.877167
2023-02-14T03:43:49.694Z,50.877171
2023-02-14T03:44:49.777Z,50.877155
2023-02-14T03:45:49.664Z,50.877125
2023-02-14T03:46:49.664Z,50.877148
2023-02-14T03:47:49.660Z,50.877182
2023-02-14T03:48:49.647Z,50.877121
2023-02-14T03:49:49.629Z,50.877113
2023-02-14T03:50:49.617Z,50.877144
2023-02-14T03:51:49.634Z,50.877151
2023-02-14T03:52:49.599Z,50.877079
2023-02-14T03:53:49.581Z,50.877102
2023-02-14T03:54:49.566Z,50.877117
2023-02-14T03:55:49.582Z,50.877098
2023-02-14T03:56:49.591Z,50.877064
2023-02-14T03:57:49.554Z,50.877075
2023-02-14T03:58:49.569Z,50.877075
2023-02-14T03:59:49.545Z,50.877075
2023-02-14T04:00:49.525Z,50.877075
2023-02-14T04:01:49.597Z,50.877075
2023-02-14T04:02:49.505Z,50.877075
2023-02-14T04:03:49.518Z,50.877075
2023-02-14T04:04:49.485Z,50.877075
2023-02-14T04:05:49.476Z,50.877075
2023-02-14T04:06:49.467Z,50.877075
2023-02-14T04:07:50.483Z,50.877075
2023-02-14T04:08:49.470Z,50.877075
2023-02-14T04:09:49.483Z,50.877075
2023-02-14T04:10:49.434Z,50.877193
2023-02-14T04:11:49.424Z,50.877193
2023-02-14T04:12:49.416Z,50.877243
2023-02-14T04:13:49.404Z,50.877312
2023-02-14T04:14:49.415Z,50.877308
2023-02-14T04:15:49.462Z,50.877308
2023-02-14T04:16:49.386Z,50.877243
2023-02-14T04:17:49.374Z,50.877281
2023-02-14T04:18:49.347Z,50.877300
2023-02-14T04:19:49.351Z,50.877228
2023-02-14T04:20:49.329Z,50.877201
2023-02-14T04:21:50.333Z,50.877205
2023-02-14T04:22:49.339Z,50.877174
2023-02-14T04:23:49.320Z,50.877197
2023-02-14T04:24:49.293Z,50.877270
2023-02-14T04:25:49.319Z,50.877144
2023-02-14T04:26:49.286Z,50.877144
2023-02-14T04:27:49.286Z,50.877186
2023-02-14T04:28:49.254Z,50.877232
2023-02-14T04:29:49.311Z,50.877102
2023-02-14T04:30:49.307Z,50.877178
2023-02-14T04:31:49.382Z,50.877182
2023-02-14T04:32:49.222Z,50.877220
2023-02-14T04:33:49.218Z,50.877213
2023-02-14T04:34:50.220Z,50.877254
2023-02-14T04:35:49.191Z,50.877357
2023-02-14T04:36:49.192Z,50.877377
2023-02-14T04:37:49.185Z,50.877270
2023-02-14T04:38:49.168Z,50.877224
2023-02-14T04:39:49.149Z,50.877224
2023-02-14T04:40:49.173Z,50.877247
2023-02-14T04:41:49.157Z,50.877342
2023-02-14T04:42:49.149Z,50.877277
2023-02-14T04:43:49.129Z,50.877186
2023-02-14T04:44:49.115Z,50.877228
2023-02-14T04:45:49.132Z,50.877235
2023-02-14T04:46:49.108Z,50.877232
2023-02-14T04:47:49.066Z,50.877239
2023-02-14T04:48:50.088Z,50.877239
2023-02-14T04:49:49.081Z,50.877274
2023-02-14T04:50:49.083Z,50.877224
2023-02-14T04:51:49.044Z,50.877247
2023-02-14T04:52:49.036Z,50.877258
2023-02-14T04:53:49.026Z,50.877216
2023-02-14T04:54:49.017Z,50.877201
2023-02-14T04:55:49.008Z,50.877193
2023-02-14T04:56:49.033Z,50.877155
2023-02-14T04:57:48.994Z,50.877155
2023-02-14T04:58:48.980Z,50.877171
2023-02-14T04:59:48.967Z,50.877235
2023-02-14T05:00:48.994Z,50.877205
2023-02-14T05:01:49.008Z,50.877159
2023-02-14T05:02:48.961Z,50.877235
2023-02-14T05:03:48.927Z,50.877201
2023-02-14T05:04:49.907Z,50.877235
2023-02-14T05:05:49.937Z,50.877266
2023-02-14T05:06:48.906Z,50.877289
2023-02-14T05:07:48.909Z,50.877247
2023-02-14T05:08:48.889Z,50.877232
2023-02-14T05:09:48.874Z,50.877220
2023-02-14T05:10:48.856Z,50.877193
2023-02-14T05:11:48.861Z,50.877274
2023-02-14T05:12:48.872Z,50.877296
2023-02-14T05:13:48.832Z,50.877228
2023-02-14T05:14:48.845Z,50.877205
2023-02-14T05:15:48.820Z,50.877258
2023-02-14T05:16:48.799Z,50.877220
2023-02-14T05:17:48.790Z,50.877197
2023-02-14T05:18:48.796Z,50.877220
2023-02-14T05:19:48.769Z,50.877243
2023-02-14T05:20:48.758Z,50.877136
2023-02-14T05:21:48.764Z,50.877071
2023-02-14T05:22:48.742Z,50.877144
2023-02-14T05:23:48.778Z,50.877205
2023-02-14T05:24:48.739Z,50.877228
2023-02-14T05:25:48.725Z,50.877197
2023-02-14T05:26:48.701Z,50.877254
2023-02-14T05:27:48.706Z,50.877251
2023-02-14T05:28:48.712Z,50.877300
2023-02-14T05:29:48.699Z,50.877274
2023-02-14T05:30:48.740Z,50.877274
2023-02-14T05:31:48.704Z,50.877285
2023-02-14T05:32:48.629Z,50.877277
2023-02-14T05:33:48.674Z,50.877247
2023-02-14T05:34:48.634Z,50.877277
2023-02-14T05:35:48.613Z,50.877419
2023-02-14T05:36:48.638Z,50.877342
2023-02-14T05:37:48.590Z,50.877216
2023-02-14T05:38:48.603Z,50.877075
2023-02-14T05:39:48.577Z,50.877193
2023-02-14T05:40:48.575Z,50.877190
2023-02-14T05:41:48.603Z,50.877232
2023-02-14T05:42:48.570Z,50.877186
2023-02-14T05:43:48.558Z,50.877239
2023-02-14T05:44:48.520Z,50.877293
2023-02-14T05:45:48.546Z,50.877285
2023-02-14T05:46:48.553Z,50.877281
2023-02-14T05:47:48.499Z,50.877247
2023-02-14T05:48:48.504Z,50.877216
2023-02-14T05:49:48.488Z,50.877117
2023-02-14T05:50:48.476Z,50.877174
2023-02-14T05:51:48.500Z,50.877243
2023-02-14T05:52:48.465Z,50.877247
2023-02-14T05:53:48.484Z,50.877193
2023-02-14T05:54:48.426Z,50.877171
2023-02-14T05:55:48.427Z,50.877190
2023-02-14T05:56:48.414Z,50.877163
2023-02-14T05:57:48.413Z,50.877155
2023-02-14T05:58:48.406Z,50.877155
2023-02-14T05:59:48.402Z,50.877155
2023-02-14T06:00:48.394Z,50.877167
2023-02-14T06:01:48.389Z,50.877159
2023-02-14T06:02:48.351Z,50.877182
2023-02-14T06:03:48.379Z,50.877205
2023-02-14T06:04:48.385Z,50.877193
2023-02-14T06:05:48.337Z,50.877213
2023-02-14T06:06:48.333Z,50.877205
2023-02-14T06:07:48.307Z,50.877163
2023-02-14T06:08:48.318Z,50.877163
2023-02-14T06:09:48.318Z,50.877174
2023-02-14T06:10:48.313Z,50.877186
2023-02-14T06:11:48.301Z,50.877182
2023-02-14T06:12:48.295Z,50.877197
2023-02-14T06:13:48.275Z,50.877186
2023-02-14T06:14:48.249Z,50.877193
2023-02-14T06:15:48.246Z,50.877182
2023-02-14T06:16:48.325Z,50.877209
2023-02-14T06:17:48.236Z,50.877193
2023-02-14T06:18:48.213Z,50.877220
2023-02-14T06:19:48.198Z,50.877216
2023-02-14T06:20:48.185Z,50.877235
2023-02-14T06:21:48.200Z,50.877224
2023-02-14T06:22:48.202Z,50.877235
2023-02-14T06:23:48.157Z,50.877232
2023-02-14T06:24:48.184Z,50.877193
2023-02-14T06:25:48.180Z,50.877201
2023-02-14T06:26:48.121Z,50.877190
2023-02-14T06:27:49.390Z,50.877197
2023-02-14T06:28:49.114Z,50.877209
2023-02-14T06:29:48.156Z,50.877182
2023-02-14T06:30:48.166Z,50.877190
2023-02-14T06:31:48.245Z,50.877182
2023-02-14T06:32:48.065Z,50.877163
2023-02-14T06:33:55.902Z,50.877197
2023-02-14T06:34:48.072Z,50.877155
2023-02-14T06:35:48.060Z,50.877148
2023-02-14T06:36:48.040Z,50.877235
2023-02-14T06:37:48.031Z,50.877190
2023-02-14T06:38:48.063Z,50.877205
2023-02-14T06:39:48.001Z,50.877155
2023-02-14T06:40:47.994Z,50.877148
2023-02-14T06:41:47.999Z,50.877178
2023-02-14T06:42:47.970Z,50.877174
2023-02-14T06:43:47.976Z,50.877144
2023-02-14T06:44:47.971Z,50.877140
2023-02-14T06:45:47.981Z,50.877129
2023-02-14T06:46:47.929Z,50.877171
2023-02-14T06:47:47.949Z,50.877163
2023-02-14T06:48:47.916Z,50.877155
2023-02-14T06:49:47.910Z,50.877182
2023-02-14T06:50:47.906Z,50.877186
2023-02-14T06:51:47.920Z,50.877144
2023-02-14T06:52:47.920Z,50.877136
2023-02-14T06:53:47.871Z,50.877205
2023-02-14T06:54:47.863Z,50.877171
2023-02-14T06:55:47.861Z,50.877190
2023-02-14T06:56:47.838Z,50.877182
2023-02-14T06:57:47.859Z,50.877182
2023-02-14T06:58:47.840Z,50.877197
2023-02-14T06:59:47.813Z,50.877197
2023-02-14T07:00:47.804Z,50.877163
2023-02-14T07:01:47.870Z,50.877190
2023-02-14T07:02:47.963Z,50.877159
2023-02-14T07:03:47.785Z,50.877186
2023-02-14T07:04:47.763Z,50.877178
2023-02-14T07:05:47.753Z,50.877190
2023-02-14T07:06:47.749Z,50.877186
2023-02-14T07:07:47.748Z,50.877186
2023-02-14T07:08:47.746Z,50.877190
2023-02-14T07:09:47.721Z,50.877190
2023-02-14T07:10:47.712Z,50.877174
2023-02-14T07:11:47.713Z,50.877193
2023-02-14T07:12:47.727Z,50.877151
2023-02-14T07:13:49.476Z,50.877132
2023-02-14T07:14:48.672Z,50.877129
2023-02-14T07:15:47.733Z,50.877167
2023-02-14T07:16:47.659Z,50.877201
2023-02-14T07:17:47.665Z,50.877140
2023-02-14T07:18:47.650Z,50.877171
2023-02-14T07:19:47.629Z,50.877182
2023-02-14T07:20:47.637Z,50.877174
2023-02-14T07:21:47.600Z,50.877155
2023-02-14T07:22:47.635Z,50.877129
2023-02-14T07:23:47.578Z,50.877197
2023-02-14T07:24:47.594Z,50.877213
2023-02-14T07:25:47.570Z,50.877197
2023-02-14T07:26:47.554Z,50.877167
2023-02-14T07:27:47.559Z,50.877171
2023-02-14T07:28:47.527Z,50.877163
2023-02-14T07:29:47.670Z,50.877174
2023-02-14T07:30:47.685Z,50.877167
2023-02-14T07:31:47.619Z,50.877190
2023-02-14T07:32:47.510Z,50.877201
2023-02-14T07:33:47.485Z,50.877163
2023-02-14T07:34:47.509Z,50.877148
2023-02-14T07:35:47.487Z,50.877155
2023-02-14T07:36:47.468Z,50.877159
2023-02-14T07:37:47.466Z,50.877186
2023-02-14T07:38:47.434Z,50.877163
2023-02-14T07:39:47.427Z,50.877167
2023-02-14T07:40:47.405Z,50.877167
2023-02-14T07:41:47.431Z,50.877163
2023-02-14T07:42:47.402Z,50.877159
2023-02-14T07:43:47.392Z,50.877178
2023-02-14T07:44:47.399Z,50.877171
2023-02-14T07:45:47.386Z,50.877171
2023-02-14T07:46:47.376Z,50.877163
2023-02-14T07:47:47.351Z,50.877159
2023-02-14T07:48:47.344Z,50.877171
2023-02-14T07:49:47.326Z,50.877171
2023-02-14T07:50:48.061Z,50.877148
2023-02-14T07:51:47.411Z,50.877132
2023-02-14T07:52:47.305Z,50.877132
2023-02-14T07:53:47.296Z,50.877155
2023-02-14T07:54:47.295Z,50.877159
2023-02-14T07:55:47.269Z,50.877155
2023-02-14T07:56:47.291Z,50.877132
2023-02-14T07:57:47.262Z,50.877136
2023-02-14T07:58:47.251Z,50.877117
2023-02-14T07:59:47.248Z,50.877125
2023-02-14T08:00:47.248Z,50.877083
2023-02-14T08:01:47.240Z,50.877129
2023-02-14T08:02:47.213Z,50.877140
2023-02-14T08:03:47.195Z,50.877129
2023-02-14T08:04:47.232Z,50.877132
2023-02-14T08:05:47.200Z,50.877129
2023-02-14T08:06:47.188Z,50.877136
2023-02-14T08:07:47.167Z,50.877140
2023-02-14T08:08:47.179Z,50.877148
2023-02-14T08:09:47.137Z,50.877159
2023-02-14T08:10:47.125Z,50.877159
2023-02-14T08:11:47.132Z,50.877117
2023-02-14T08:12:47.120Z,50.877132
2023-02-14T08:13:47.107Z,50.877140
2023-02-14T08:14:48.090Z,50.877140
2023-02-14T08:15:47.118Z,50.877171
2023-02-14T08:16:47.133Z,50.877171
2023-02-14T08:17:47.041Z,50.877174
2023-02-14T08:18:47.032Z,50.877209
2023-02-14T08:19:47.033Z,50.877197
2023-02-14T08:20:47.026Z,50.877186
2023-02-14T08:21:47.034Z,50.877106
2023-02-14T08:22:47.011Z,50.877106
2023-02-14T08:23:47.665Z,50.877144
2023-02-14T08:24:47.988Z,50.877148
2023-02-14T08:25:46.977Z,50.877186
2023-02-14T08:26:47.006Z,50.877186
2023-02-14T08:27:46.990Z,50.877186
2023-02-14T08:28:46.948Z,50.877190
2023-02-14T08:29:46.939Z,50.877163
2023-02-14T08:30:46.934Z,50.877190
2023-02-14T08:31:47.037Z,50.877190
2023-02-14T08:32:46.990Z,50.877167
2023-02-14T08:33:46.897Z,50.877254
2023-02-14T08:34:46.900Z,50.877205
2023-02-14T08:35:46.900Z,50.877190
2023-02-14T08:36:46.895Z,50.877140
2023-02-14T08:37:46.880Z,50.877151
2023-02-14T08:38:46.865Z,50.877186
2023-02-14T08:39:46.836Z,50.877254
2023-02-14T08:40:46.844Z,50.877155
2023-02-14T08:41:46.842Z,50.877117
2023-02-14T08:42:46.802Z,50.877094
2023-02-14T08:43:46.795Z,50.877193
2023-02-14T08:44:46.797Z,50.877174
2023-02-14T08:45:46.808Z,50.877129
2023-02-14T08:46:46.879Z,50.877148
2023-02-14T08:47:46.796Z,50.877144
2023-02-14T08:48:46.776Z,50.877159
2023-02-14T08:49:46.760Z,50.877171
2023-02-14T08:50:46.767Z,50.877186
2023-02-14T08:51:46.766Z,50.877155
2023-02-14T08:52:46.731Z,50.877148
2023-02-14T08:53:46.726Z,50.877193
2023-02-14T08:54:46.701Z,50.877174
2023-02-14T08:55:46.723Z,50.877186
2023-02-14T08:56:46.680Z,50.877178
2023-02-14T08:57:46.687Z,50.877159
2023-02-14T08:58:46.675Z,50.877159
2023-02-14T08:59:46.693Z,50.877155
2023-02-14T09:00:46.679Z,50.877151
2023-02-14T09:01:46.674Z,50.877159
2023-02-14T09:02:46.633Z,50.877205
2023-02-14T09:03:46.657Z,50.877220
2023-02-14T09:04:46.669Z,50.877190
2023-02-14T09:05:46.603Z,50.877190
2023-02-14T09:06:46.597Z,50.877197
2023-02-14T09:07:46.597Z,50.877193
2023-02-14T09:08:46.564Z,50.877197
2023-02-14T09:09:46.555Z,50.877209
2023-02-14T09:10:46.561Z,50.877193
2023-02-14T09:11:46.587Z,50.877220
2023-02-14T09:12:46.524Z,50.877220
2023-02-14T09:13:46.580Z,50.877216
2023-02-14T09:14:46.544Z,50.877201
2023-02-14T09:15:46.511Z,50.877197
2023-02-14T09:16:46.564Z,50.877167
2023-02-14T09:17:46.475Z,50.877182
2023-02-14T09:18:46.464Z,50.877182
2023-02-14T09:19:46.456Z,50.877178
2023-02-14T09:20:46.467Z,50.877197
2023-02-14T09:21:46.472Z,50.877197
2023-02-14T09:22:48.675Z,50.877193
2023-02-14T09:23:46.418Z,50.877182
2023-02-14T09:24:46.408Z,50.877201
2023-02-14T09:25:46.430Z,50.877186
2023-02-14T09:26:46.389Z,50.877201
2023-02-14T09:27:46.360Z,50.877190
2023-02-14T09:28:46.376Z,50.877190
2023-02-14T09:29:46.347Z,50.877193
2023-02-14T09:30:46.349Z,50.877151
2023-02-14T09:31:46.443Z,50.877178
2023-02-14T09:32:46.328Z,50.877159
2023-02-14T09:33:46.321Z,50.877163
2023-02-14T09:34:46.331Z,50.877167
2023-02-14T09:35:46.296Z,50.877201
2023-02-14T09:36:46.307Z,50.877193
2023-02-14T09:38:18.160Z,50.877159
2023-02-14T09:38:46.261Z,50.877178
2023-02-14T09:39:46.258Z,50.877190
2023-02-14T09:40:46.269Z,50.877163
2023-02-14T09:41:46.244Z,50.877178
2023-02-14T09:42:46.210Z,50.877174
2023-02-14T09:43:46.191Z,50.877167
2023-02-14T09:44:47.199Z,50.877174
2023-02-14T09:45:46.238Z,50.877190
2023-02-14T09:46:46.176Z,50.877197
2023-02-14T09:47:46.166Z,50.877201
2023-02-14T09:48:46.223Z,50.877197
2023-02-14T09:49:46.231Z,50.877193
2023-02-14T09:50:46.132Z,50.877136
2023-02-14T09:51:46.170Z,50.877151
2023-02-14T09:52:46.224Z,50.877167
2023-02-14T09:53:46.102Z,50.877190
2023-02-14T09:54:46.109Z,50.877174
2023-02-14T09:55:46.094Z,50.877216
2023-02-14T09:56:51.381Z,50.877201
2023-02-14T09:57:47.093Z,50.877148
2023-02-14T09:58:46.090Z,50.877163
2023-02-14T09:59:46.055Z,50.877178
2023-02-14T10:00:46.093Z,50.877182
2023-02-14T10:01:46.059Z,50.877197
2023-02-14T10:02:46.028Z,50.877171
2023-02-14T10:03:46.036Z,50.877186
2023-02-14T10:04:46.027Z,50.877163
2023-02-14T10:05:46.042Z,50.877182
2023-02-14T10:06:45.974Z,50.877186
2023-02-14T10:07:45.974Z,50.877159
2023-02-14T10:08:45.957Z,50.877163
2023-02-14T10:09:45.971Z,50.877213
2023-02-14T10:10:45.945Z,50.877213
2023-02-14T10:11:45.963Z,50.877178
2023-02-14T10:12:45.929Z,50.877178
2023-02-14T10:13:45.904Z,50.877178
2023-02-14T10:14:45.906Z,50.877182
2023-02-14T10:15:45.906Z,50.877163
2023-02-14T10:16:45.908Z,50.877132
2023-02-14T10:17:45.883Z,50.877178
2023-02-14T10:18:45.864Z,50.877205
2023-02-14T10:19:45.842Z,50.877190
2023-02-14T10:20:45.870Z,50.877197
2023-02-14T10:21:47.916Z,50.877201
2023-02-14T10:22:45.837Z,50.877224
2023-02-14T10:23:45.820Z,50.877209
2023-02-14T10:24:45.833Z,50.877228
2023-02-14T10:25:45.803Z,50.877209
2023-02-14T10:26:45.800Z,50.877201
2023-02-14T10:27:45.812Z,50.877239
2023-02-14T10:28:45.764Z,50.877270
2023-02-14T10:29:45.765Z,50.877251
2023-02-14T10:30:45.874Z,50.877235
2023-02-14T10:31:45.821Z,50.877220
2023-02-14T10:32:45.760Z,50.877205
2023-02-14T10:33:45.732Z,50.877205
2023-02-14T10:34:45.737Z,50.877186
2023-02-14T10:35:45.726Z,50.877167
2023-02-14T10:36:45.714Z,50.877186
2023-02-14T10:37:45.675Z,50.877186
2023-02-14T10:38:45.690Z,50.877186
2023-02-14T10:39:45.684Z,50.877216
2023-02-14T10:40:45.672Z,50.877201
2023-02-14T10:41:45.660Z,50.877201
2023-02-14T10:42:45.652Z,50.877174
2023-02-14T10:43:45.652Z,50.877193
2023-02-14T10:44:45.647Z,50.877182
2023-02-14T10:45:45.751Z,50.877186
2023-02-14T10:46:45.604Z,50.877182
2023-02-14T10:47:45.593Z,50.877182
2023-02-14T10:48:45.630Z,50.877178
2023-02-14T10:49:45.578Z,50.877178
2023-02-14T10:50:45.571Z,50.877178
2023-02-14T10:51:45.568Z,50.877159
2023-02-14T10:52:45.564Z,50.877140
2023-02-14T10:53:45.611Z,50.877159
2023-02-14T10:54:45.545Z,50.877140
2023-02-14T10:55:45.552Z,50.877159
2023-02-14T10:56:45.533Z,50.877159
2023-02-14T10:57:45.507Z,50.877155
2023-02-14T10:58:45.512Z,50.877140
2023-02-14T10:59:45.476Z,50.877151
2023-02-14T11:00:45.478Z,50.877121
2023-02-14T11:01:45.485Z,50.877136
2023-02-14T11:02:45.453Z,50.877140
2023-02-14T11:03:45.496Z,50.877174
2023-02-14T11:04:45.434Z,50.877174
2023-02-14T11:05:46.786Z,50.877159
2023-02-14T11:06:46.415Z,50.877193
2023-02-14T11:07:45.406Z,50.877190
2023-02-14T11:08:45.401Z,50.877163
2023-02-14T11:09:45.422Z,50.877186
2023-02-14T11:10:45.393Z,50.877193
2023-02-14T11:11:45.384Z,50.877171
2023-02-14T11:12:45.769Z,50.877163
2023-02-14T11:13:45.370Z,50.877159
2023-02-14T11:14:45.356Z,50.877140
2023-02-14T11:15:45.369Z,50.877171
2023-02-14T11:16:45.371Z,50.877171
2023-02-14T11:17:45.305Z,50.877213
2023-02-14T11:18:45.327Z,50.877178
2023-02-14T11:19:45.306Z,50.877197
2023-02-14T11:20:45.305Z,50.877132
2023-02-14T11:21:45.324Z,50.877140
2023-02-14T11:22:45.275Z,50.877144
2023-02-14T11:23:45.260Z,50.877144
2023-02-14T11:24:45.256Z,50.877159